createdAt,value
2019-04-20T00:00:13.219Z,11.56
2019-04-20T00:05:11.304Z,11.44
2019-04-20T00:10:16.774Z,11.31
2019-04-20T00:15:11.275Z,11.31
2019-04-20T00:20:18.332Z,11.13
2019-04-20T00:25:16.933Z,11
2019-04-20T00:30:31.289Z,10.88
2019-04-20T00:35:12.376Z,10.75
2019-04-20T00:40:11.305Z,10.69
2019-04-20T00:45:18.969Z,10.63
2019-04-20T00:50:28.054Z,10.5
2019-04-20T00:55:12.759Z,10.38
2019-04-20T01:00:25.657Z,10.25
2019-04-20T01:05:22.576Z,10.25
2019-04-20T01:10:11.292Z,10.13
2019-04-20T01:15:17.387Z,10
2019-04-20T01:20:11.318Z,9.88
2019-04-20T01:25:18.016Z,9.75
2019-04-20T01:30:20.440Z,9.63
2019-04-20T01:35:35.416Z,9.63
2019-04-20T01:40:11.722Z,9.56
2019-04-20T01:45:17.780Z,9.38
2019-04-20T01:50:16.585Z,9.19
2019-04-20T01:55:27.438Z,9.06
2019-04-20T02:00:18.094Z,8.88
2019-04-20T02:05:16.497Z,8.81
2019-04-20T02:10:13.715Z,8.81
2019-04-20T02:15:19.670Z,8.81
2019-04-20T02:20:32.877Z,8.81
2019-04-20T02:25:12.142Z,8.75
2019-04-20T02:30:47.251Z,8.56
2019-04-20T02:35:42.375Z,8.5
2019-04-20T02:40:50.153Z,8.5
2019-04-20T02:45:43.757Z,8.56
2019-04-20T02:50:42.938Z,8.44
2019-04-20T03:00:33.449Z,8
2019-04-20T03:05:23.523Z,7.81
2019-04-20T03:10:40.752Z,7.75
2019-04-20T03:15:37.352Z,7.81
2019-04-20T03:20:35.891Z,7.88
2019-04-20T03:25:35.581Z,7.88
2019-04-20T03:35:32.776Z,8
2019-04-20T03:40:23.990Z,8.31
2019-04-20T03:45:14.722Z,8.56
2019-04-20T03:50:35.433Z,8.63
2019-04-20T03:55:25.357Z,8.56
2019-04-20T04:00:30.308Z,8.5
2019-04-20T04:05:27.317Z,8.38
2019-04-20T04:10:24.633Z,8.25
2019-04-20T04:15:12.562Z,8.19
2019-04-20T04:20:14.728Z,8.13
2019-04-20T04:25:28.424Z,8.25
2019-04-20T04:30:25.184Z,8.63
2019-04-20T04:35:23.161Z,9.25
2019-04-20T04:40:55.010Z,10
2019-04-20T04:45:14.469Z,10.88
2019-04-20T04:50:16.174Z,11.56
2019-04-20T04:55:23.308Z,12.13
2019-04-20T05:00:17.537Z,12.25
2019-04-20T05:05:30.689Z,12.5
2019-04-20T05:10:11.871Z,13
2019-04-20T05:15:18.944Z,14
2019-04-20T05:20:26.771Z,15.94
2019-04-20T05:25:30.759Z,16.75
2019-04-20T05:30:11.854Z,17.06
2019-04-20T05:35:30.457Z,17.56
2019-04-20T05:40:32.399Z,17.19
2019-04-20T05:45:28.206Z,17.44
2019-04-20T05:50:30.089Z,18.06
2019-04-20T05:55:32.864Z,18.69
2019-04-20T06:00:33.294Z,18.56
2019-04-20T06:05:34.502Z,19.19
2019-04-20T06:10:31.514Z,18.5
2019-04-20T06:15:23.279Z,18.75
2019-04-20T06:20:30.910Z,19.19
2019-04-20T06:25:43.643Z,19.75
2019-04-20T06:30:27.862Z,19.88
2019-04-20T06:35:51.445Z,20.5
2019-04-20T06:40:45.423Z,20.81
2019-04-20T06:45:32.937Z,21.19
2019-04-20T06:50:28.683Z,21
2019-04-20T06:55:37.929Z,20.63
2019-04-20T07:00:30.320Z,20.81
2019-04-20T07:05:30.063Z,21.25
2019-04-20T07:10:51.222Z,21.38
2019-04-20T07:15:28.369Z,21.25
2019-04-20T07:20:37.163Z,20.88
2019-04-20T07:25:36.942Z,20.25
2019-04-20T07:30:29.470Z,20
2019-04-20T07:35:30.144Z,20.06
2019-04-20T07:40:28.549Z,19.63
2019-04-20T07:45:41.178Z,19.31
2019-04-20T07:50:24.955Z,19
2019-04-20T07:55:36.783Z,19.19
2019-04-20T08:00:41.033Z,19.5
2019-04-20T08:05:25.340Z,19.75
2019-04-20T08:10:28.507Z,19.5
2019-04-20T08:15:42.408Z,19.88
2019-04-20T08:20:30.827Z,19.81
2019-04-20T08:25:23.390Z,19.56
2019-04-20T08:30:29.024Z,19.88
2019-04-20T08:35:31.722Z,19.81
2019-04-20T08:40:31.185Z,20.06
2019-04-20T08:45:34.427Z,20.06
2019-04-20T08:50:26.779Z,19.94
2019-04-20T08:55:28.012Z,20
2019-04-20T09:00:11.435Z,20.38
2019-04-20T09:05:24.715Z,20.63
2019-04-20T09:10:33.969Z,20.56
2019-04-20T09:15:12.500Z,20.63
2019-04-20T09:20:16.089Z,20.63
2019-04-20T09:25:53.194Z,20.81
2019-04-20T09:30:24.187Z,21
2019-04-20T09:35:29.635Z,21.56
2019-04-20T09:40:30.378Z,21.31
2019-04-20T09:45:17.935Z,22.06
2019-04-20T09:50:27.138Z,22.44
2019-04-20T09:55:24.093Z,22.44
2019-04-20T10:00:23.442Z,22.19
2019-04-20T10:05:11.598Z,22.56
2019-04-20T10:10:21.115Z,22.94
2019-04-20T10:15:17.575Z,23.13
2019-04-20T10:20:17.546Z,23.13
2019-04-20T10:25:12.734Z,23.19
2019-04-20T10:30:12.536Z,23.13
2019-04-20T10:35:13.693Z,23
2019-04-20T10:40:11.622Z,23.38
2019-04-20T10:45:12.727Z,23.69
2019-04-20T10:50:11.518Z,23.5
2019-04-20T10:55:12.449Z,23.44
2019-04-20T11:00:11.437Z,23.56
2019-04-20T11:05:12.654Z,23.31
2019-04-20T11:10:18.408Z,23.31
2019-04-20T11:15:12.457Z,23.06
2019-04-20T11:20:11.430Z,23.19
2019-04-20T11:25:12.421Z,22.81
2019-04-20T11:30:11.998Z,23.56
2019-04-20T11:35:23.699Z,23.38
2019-04-20T11:40:12.867Z,23.13
2019-04-20T11:45:12.826Z,22.94
2019-04-20T11:50:11.462Z,22.81
2019-04-20T11:55:12.588Z,22.88
2019-04-20T12:00:11.437Z,22.81
2019-04-20T12:05:20.918Z,22.81
2019-04-20T12:10:15.617Z,22.56
2019-04-20T12:15:12.646Z,22.38
2019-04-20T12:20:11.512Z,22.31
2019-04-20T12:25:12.053Z,22.06
2019-04-20T12:30:12.074Z,22.44
2019-04-20T12:35:12.050Z,22.25
2019-04-20T12:40:12.115Z,22.13
2019-04-20T12:45:11.569Z,22.13
2019-04-20T12:50:11.817Z,22.31
2019-04-20T12:55:12.398Z,22.19
2019-04-20T13:00:11.876Z,22.31
2019-04-20T13:05:11.550Z,21.94
2019-04-20T13:10:11.626Z,21.94
2019-04-20T13:15:11.494Z,21.63
2019-04-20T13:20:11.995Z,21.69
2019-04-20T13:25:12.716Z,21.88
2019-04-20T13:30:11.465Z,21.69
2019-04-20T13:35:12.132Z,21.75
2019-04-20T13:40:11.478Z,21.88
2019-04-20T13:45:12.815Z,22.06
2019-04-20T13:50:12.943Z,22.06
2019-04-20T13:55:11.537Z,21.94
2019-04-20T14:00:11.496Z,21.81
2019-04-20T14:05:12.595Z,21.63
2019-04-20T14:10:11.438Z,21.5
2019-04-20T14:15:11.530Z,21.75
2019-04-20T14:20:15.101Z,21.75
2019-04-20T14:25:11.520Z,21.81
2019-04-20T14:30:12.898Z,21.63
2019-04-20T14:35:11.518Z,21.69
2019-04-20T14:40:12.556Z,21.5
2019-04-20T14:45:11.530Z,21.5
2019-04-20T14:50:11.871Z,21.44
2019-04-20T14:55:13.514Z,21.38
2019-04-20T15:00:11.789Z,21.38
2019-04-20T15:05:12.789Z,21.63
2019-04-20T15:10:11.787Z,21.56
2019-04-20T15:15:12.553Z,21.56
2019-04-20T15:20:11.814Z,21.44
2019-04-20T15:25:11.738Z,21.44
2019-04-20T15:30:12.062Z,21.63
2019-04-20T15:35:11.497Z,21.5
2019-04-20T15:40:11.494Z,21.31
2019-04-20T15:45:11.577Z,21.25
2019-04-20T15:50:11.785Z,21.38
2019-04-20T15:55:19.187Z,21.38
2019-04-20T16:00:11.505Z,21.31
2019-04-20T16:05:12.314Z,21.19
2019-04-20T16:10:12.866Z,21.13
2019-04-20T16:15:11.553Z,21.13
2019-04-20T16:20:14.635Z,21.13
2019-04-20T16:25:11.738Z,21.06
2019-04-20T16:30:11.694Z,21
2019-04-20T16:35:11.510Z,20.88
2019-04-20T16:40:11.694Z,20.88
2019-04-20T16:45:11.703Z,20.81
2019-04-20T16:50:12.987Z,20.75
2019-04-20T16:55:12.843Z,20.69
2019-04-20T17:00:11.587Z,20.56
2019-04-20T17:05:11.485Z,20.56
2019-04-20T17:10:11.934Z,20.5
2019-04-20T17:15:11.806Z,20.44
2019-04-20T17:20:11.618Z,20.31
2019-04-20T17:25:12.268Z,20.25
2019-04-20T17:30:12.861Z,20.31
2019-04-20T17:35:20.479Z,20.25
2019-04-20T17:40:33.708Z,20.06
2019-04-20T17:45:24.742Z,19.88
2019-04-20T17:50:30.236Z,19.63
2019-04-20T17:55:22.782Z,19.44
2019-04-20T18:00:14.863Z,19.13
2019-04-20T18:05:32.599Z,18.81
2019-04-20T18:10:30.123Z,18.63
2019-04-20T18:15:31.102Z,18.44
2019-04-20T18:20:12.615Z,18.25
2019-04-20T18:25:28.655Z,18.06
2019-04-20T18:30:26.099Z,17.88
2019-04-20T18:35:12.133Z,17.69
2019-04-20T18:40:14.811Z,17.56
2019-04-20T18:45:26.360Z,17.38
2019-04-20T18:50:18.247Z,17.25
2019-04-20T18:55:15.720Z,16.94
2019-04-20T19:00:18.218Z,16.88
2019-04-20T19:05:11.628Z,16.88
2019-04-20T19:10:18.450Z,16.88
2019-04-20T19:15:30.278Z,16.81
2019-04-20T19:20:12.056Z,16.69
2019-04-20T19:25:18.140Z,16.63
2019-04-20T19:30:24.282Z,16.63
2019-04-20T19:35:25.606Z,16.5
2019-04-20T19:40:21.746Z,16.38
2019-04-20T19:45:35.969Z,16.25
2019-04-20T19:50:34.967Z,16.13
2019-04-20T19:55:27.077Z,15.94
2019-04-20T20:00:11.923Z,15.75
2019-04-20T20:05:15.330Z,15.56
2019-04-20T20:10:12.700Z,15.44
2019-04-20T20:15:15.922Z,15.25
2019-04-20T20:20:35.468Z,15.13
2019-04-20T20:25:12.770Z,14.94
2019-04-20T20:30:18.460Z,14.75
2019-04-20T20:35:16.546Z,14.63
2019-04-20T20:40:18.646Z,14.5
2019-04-20T20:45:22.525Z,14.38
2019-04-20T20:50:32.487Z,14.19
2019-04-20T20:55:20.779Z,14.06
2019-04-20T21:00:22.512Z,13.94
2019-04-20T21:05:11.680Z,13.81
2019-04-20T21:10:14.966Z,13.63
2019-04-20T21:15:16.750Z,13.56
2019-04-20T21:20:24.381Z,13.5
2019-04-20T21:25:12.911Z,13.38
2019-04-20T21:30:18.147Z,13.25
2019-04-20T21:35:14.185Z,13.13
2019-04-20T21:40:20.197Z,13
2019-04-20T21:45:18.480Z,12.88
2019-04-20T21:50:29.353Z,12.81
2019-04-20T21:55:12.093Z,12.75
2019-04-20T22:00:18.774Z,12.69
2019-04-20T22:05:11.675Z,12.63
2019-04-20T22:10:18.200Z,12.56
2019-04-20T22:15:19.636Z,12.5
2019-04-20T22:20:19.913Z,12.44
2019-04-20T22:25:32.803Z,12.38
2019-04-20T22:30:12.244Z,12.25
2019-04-20T22:35:15.183Z,12.25
2019-04-20T22:40:18.312Z,12.19
2019-04-20T22:45:14.028Z,12.19
2019-04-20T22:50:24.840Z,12.06
2019-04-20T22:55:23.571Z,12
2019-04-20T23:00:16.589Z,12
2019-04-20T23:05:13.012Z,11.88
2019-04-20T23:10:11.614Z,11.75
2019-04-20T23:15:12.144Z,11.63
2019-04-20T23:20:17.064Z,11.5
2019-04-20T23:25:11.623Z,11.5
2019-04-20T23:30:23.053Z,11.38
2019-04-20T23:35:16.466Z,11.19
2019-04-20T23:40:13.641Z,11.06
2019-04-20T23:45:11.675Z,11.06
2019-04-20T23:50:36.710Z,11
2019-04-20T23:55:13.856Z,11.06
